Terminal Aerodrome Forecast
Issued by NWS

Home | Current Version | Previous Version | Text Only | Print | Product List | Glossary On
Versions: 1 2 3 4 5 6 7 8 9 10 11 12 13 14 15 16 17 18 19 20 21 22 23 24
876
FTUS43 KTOP 222335
TAFFOE
TAF
KFOE 222335Z 2300/2324 30019G26KT 3SM -SN BR OVC013
      TEMPO 2300/2302 1 1/2SM -SN BR OVC007
     FM230200 30018G26KT P6SM OVC025
     FM230800 31014KT P6SM BKN025
     FM231300 30010KT P6SM SCT025=

USA.gov is the U.S. government's official web portal to all federal, state and local government web resources and services.